createdAt,value
2023-01-25T00:02:11.695Z,7.80
2023-01-25T00:07:20.763Z,8.10
2023-01-25T00:12:28.128Z,9.00
2023-01-25T00:17:35.574Z,7.70
2023-01-25T00:22:43.772Z,7.10
2023-01-25T00:27:51.223Z,7.30
2023-01-25T00:33:03.786Z,7.20
2023-01-25T00:38:30.232Z,7.10
2023-01-25T00:43:37.301Z,7.10
2023-01-25T00:53:50.011Z,7.40
2023-01-25T00:58:57.078Z,7.70
2023-01-25T01:04:05.749Z,6.60
2023-01-25T01:09:18.708Z,7.10
2023-01-25T01:19:35.760Z,7.50
2023-01-25T01:24:43.776Z,9.00
2023-01-25T01:29:51.990Z,7.70
2023-01-25T01:34:59.768Z,6.80
2023-01-25T01:40:08.457Z,6.70
2023-01-25T01:45:46.114Z,5.90
2023-01-25T01:50:59.025Z,6.40
2023-01-25T01:56:12.848Z,6.10
2023-01-25T02:01:20.688Z,8.00
2023-01-25T02:06:35.213Z,6.30
2023-01-25T02:11:42.851Z,6.60
2023-01-25T02:16:50.372Z,7.80
2023-01-25T02:22:00.967Z,7.10
2023-01-25T02:27:08.590Z,6.30
2023-01-25T02:32:16.473Z,7.30
2023-01-25T02:37:23.766Z,6.50
2023-01-25T02:42:35.979Z,7.90
2023-01-25T02:47:43.269Z,7.30
2023-01-25T02:52:50.487Z,7.10
2023-01-25T03:03:05.315Z,6.90
2023-01-25T03:08:12.868Z,6.50
2023-01-25T03:13:20.431Z,7.00
2023-01-25T03:18:28.176Z,9.90
2023-01-25T03:23:35.638Z,6.60
2023-01-25T03:28:43.993Z,8.30
2023-01-25T03:33:51.297Z,7.80
2023-01-25T03:38:58.609Z,7.10
2023-01-25T03:49:11.606Z,7.40
2023-01-25T03:54:18.900Z,6.90
2023-01-25T03:59:26.048Z,7.10
2023-01-25T04:09:38.828Z,7.00
2023-01-25T04:20:18.111Z,8.60
2023-01-25T04:25:25.609Z,9.20
2023-01-25T04:30:33.311Z,9.00
2023-01-25T04:35:41.092Z,8.00
2023-01-25T04:40:48.970Z,7.90
2023-01-25T04:45:56.657Z,8.90
2023-01-25T04:51:03.925Z,9.30
2023-01-25T05:01:18.278Z,9.40
2023-01-25T05:06:25.800Z,8.10
2023-01-25T05:11:32.983Z,9.50
2023-01-25T05:22:01.693Z,8.50
2023-01-25T05:27:09.933Z,8.40
2023-01-25T05:32:19.654Z,9.70
2023-01-25T05:37:26.944Z,7.60
2023-01-25T05:42:34.204Z,8.70
2023-01-25T05:52:48.508Z,8.00
2023-01-25T05:57:58.355Z,7.50
2023-01-25T06:03:05.857Z,10.00
2023-01-25T06:08:14.041Z,8.10
2023-01-25T06:13:22.567Z,9.40
2023-01-25T06:18:31.408Z,8.10
2023-01-25T06:23:38.908Z,9.40
2023-01-25T06:28:47.455Z,8.00
2023-01-25T06:33:55.430Z,6.40
2023-01-25T06:39:03.465Z,6.20
2023-01-25T06:44:11.633Z,5.80
2023-01-25T06:59:00.327Z,6.30
2023-01-25T07:09:16.640Z,5.70
2023-01-25T07:14:23.784Z,6.10
2023-01-25T07:24:37.267Z,6.80
2023-01-25T07:29:44.877Z,6.80
2023-01-25T07:34:52.268Z,7.50
2023-01-25T07:39:59.375Z,8.40
2023-01-25T07:45:08.353Z,7.00
2023-01-25T07:50:16.674Z,6.00
2023-01-25T07:55:24.360Z,4.60
2023-01-25T08:00:31.984Z,4.90
2023-01-25T08:05:40.224Z,5.90
2023-01-25T08:10:48.451Z,6.60
2023-01-25T08:15:59.189Z,6.80
2023-01-25T08:21:07.693Z,5.90
2023-01-25T08:26:17.169Z,6.10
2023-01-25T08:31:26.182Z,5.80
2023-01-25T08:36:35.389Z,5.30
2023-01-25T08:41:43.093Z,7.80
2023-01-25T08:46:51.518Z,7.70
2023-01-25T08:51:59.680Z,7.20
2023-01-25T08:57:07.972Z,7.00
2023-01-25T09:02:15.875Z,6.90
2023-01-25T09:07:23.187Z,6.30
2023-01-25T09:17:39.296Z,7.60
2023-01-25T09:22:47.013Z,7.70
2023-01-25T09:27:54.742Z,7.20
2023-01-25T09:33:05.022Z,7.10
2023-01-25T09:38:12.761Z,6.00
2023-01-25T09:43:32.939Z,6.60
2023-01-25T09:48:48.625Z,6.60
2023-01-25T09:53:58.746Z,6.40
2023-01-25T09:59:13.363Z,7.30
2023-01-25T10:04:24.157Z,7.50
2023-01-25T10:09:40.723Z,8.00
2023-01-25T10:14:49.259Z,7.60
2023-01-25T10:20:10.820Z,6.80
2023-01-25T10:25:33.480Z,7.30
2023-01-25T10:30:44.584Z,8.40
2023-01-25T10:35:53.417Z,6.70
2023-01-25T10:41:05.771Z,8.20
2023-01-25T10:46:23.217Z,7.90
2023-01-25T10:56:43.729Z,7.70
2023-01-25T11:01:51.430Z,7.10
2023-01-25T11:06:59.316Z,7.00
2023-01-25T11:12:18.243Z,6.00
2023-01-25T11:17:32.411Z,5.30
2023-01-25T11:22:50.152Z,5.70
2023-01-25T11:28:16.118Z,5.60
2023-01-25T11:33:28.167Z,5.70
2023-01-25T11:38:36.018Z,5.10
2023-01-25T11:44:05.020Z,6.50
2023-01-25T11:49:27.809Z,5.30
2023-01-25T11:54:59.049Z,6.00
2023-01-25T12:00:24.592Z,6.80
2023-01-25T12:05:55.342Z,6.90
2023-01-25T12:11:09.805Z,7.10
2023-01-25T12:16:45.242Z,9.70
2023-01-25T12:22:16.424Z,11.40
2023-01-25T12:27:39.923Z,9.00
2023-01-25T12:32:55.461Z,8.80
2023-01-25T12:38:14.888Z,6.60
2023-01-25T12:43:28.753Z,6.40
2023-01-25T12:48:42.791Z,6.10
2023-01-25T12:53:52.170Z,6.80
2023-01-25T12:59:08.695Z,6.40
2023-01-25T13:04:27.458Z,6.40
2023-01-25T13:09:41.216Z,6.10
2023-01-25T13:14:48.799Z,4.80
2023-01-25T13:19:56.641Z,6.10
2023-01-25T13:25:22.993Z,6.20
2023-01-25T13:30:52.296Z,6.80
2023-01-25T13:36:20.579Z,6.30
2023-01-25T13:41:28.999Z,7.00
2023-01-25T13:46:36.509Z,6.30
2023-01-25T13:51:44.841Z,5.30
2023-01-25T13:57:06.417Z,5.60
2023-01-25T14:02:20.521Z,4.40
2023-01-25T14:07:37.168Z,5.20
2023-01-25T14:21:10.682Z,5.90
2023-01-25T14:26:26.692Z,7.10
2023-01-25T14:31:36.614Z,6.60
2023-01-25T14:36:44.088Z,5.90
2023-01-25T14:42:00.823Z,6.10
2023-01-25T14:47:29.858Z,6.70
2023-01-25T14:52:40.757Z,6.90
2023-01-25T14:57:49.410Z,5.40
2023-01-25T15:02:59.023Z,6.70
2023-01-25T15:08:29.460Z,6.50
2023-01-25T15:13:37.092Z,6.00
2023-01-25T15:18:53.095Z,7.20
2023-01-25T15:24:05.107Z,7.30
2023-01-25T15:29:16.430Z,7.10
2023-01-25T15:34:26.219Z,8.10
2023-01-25T15:39:35.276Z,7.90
2023-01-25T15:44:42.957Z,7.20
2023-01-25T15:49:50.185Z,7.10
2023-01-25T16:00:21.528Z,6.60
2023-01-25T16:05:29.682Z,7.60
2023-01-25T16:10:37.217Z,6.60
2023-01-25T16:15:49.707Z,6.70
2023-01-25T16:20:57.557Z,7.60
2023-01-25T16:26:05.504Z,8.00
2023-01-25T16:31:30.847Z,7.00
2023-01-25T16:36:39.753Z,11.70
2023-01-25T16:41:47.684Z,11.30
2023-01-25T16:46:55.601Z,10.00
2023-01-25T16:52:03.706Z,9.10
2023-01-25T16:57:20.305Z,10.30
2023-01-25T17:02:28.452Z,9.10
2023-01-25T17:07:36.326Z,8.30
2023-01-25T17:12:45.634Z,9.20
2023-01-25T17:17:52.949Z,8.70
2023-01-25T17:23:00.337Z,8.50
2023-01-25T17:28:07.470Z,26.70
2023-01-25T17:33:17.513Z,9.10
2023-01-25T17:38:24.764Z,10.00
2023-01-25T17:43:34.367Z,9.60
2023-01-25T17:48:42.751Z,10.50
2023-01-25T17:53:50.049Z,8.80
2023-01-25T17:58:58.567Z,9.50
2023-01-25T18:04:09.804Z,8.20
2023-01-25T18:09:17.725Z,7.50
2023-01-25T18:14:24.997Z,6.90
2023-01-25T18:19:33.228Z,9.20
2023-01-25T18:24:41.034Z,10.30
2023-01-25T18:29:53.983Z,9.50
2023-01-25T18:35:01.304Z,9.20
2023-01-25T18:40:11.891Z,9.60
2023-01-25T18:45:19.376Z,9.80
2023-01-25T18:50:26.900Z,10.40
2023-01-25T18:55:34.377Z,10.00
2023-01-25T19:00:41.691Z,9.20
2023-01-25T19:05:54.649Z,12.40
2023-01-25T19:11:06.312Z,12.30
2023-01-25T19:16:15.832Z,13.80
2023-01-25T19:21:25.526Z,12.80
2023-01-25T19:26:33.054Z,14.60
2023-01-25T19:31:41.197Z,16.30
2023-01-25T19:36:50.275Z,14.60
2023-01-25T19:41:58.183Z,18.70
2023-01-25T19:47:06.020Z,16.90
2023-01-25T19:52:13.691Z,17.20
2023-01-25T19:57:20.934Z,19.60
2023-01-25T20:02:28.397Z,15.70
2023-01-25T20:07:35.869Z,20.60
2023-01-25T20:12:43.214Z,16.20
2023-01-25T20:17:50.673Z,19.10
2023-01-25T20:22:57.774Z,17.00
2023-01-25T20:33:10.485Z,18.90
2023-01-25T20:38:18.543Z,17.30
2023-01-25T20:43:26.608Z,18.20
2023-01-25T20:48:36.667Z,17.10
2023-01-25T20:53:45.400Z,18.90
2023-01-25T20:58:54.175Z,15.80
2023-01-25T21:04:01.646Z,21.90
2023-01-25T21:09:08.904Z,19.00
2023-01-25T21:14:18.049Z,17.40
2023-01-25T21:19:28.237Z,13.20
2023-01-25T21:24:35.756Z,16.60
2023-01-25T21:29:44.059Z,14.10
2023-01-25T21:34:51.571Z,15.20
2023-01-25T21:39:58.875Z,18.10
2023-01-25T21:45:25.229Z,17.30
2023-01-25T21:50:50.342Z,17.00
2023-01-25T21:55:59.706Z,15.10
2023-01-25T22:01:10.365Z,16.30
2023-01-25T22:06:18.822Z,15.00
2023-01-25T22:11:26.434Z,16.20
2023-01-25T22:16:33.797Z,14.70
2023-01-25T22:21:41.301Z,14.80
2023-01-25T22:26:59.390Z,16.80
2023-01-25T22:32:07.110Z,16.20
2023-01-25T22:37:14.695Z,12.00
2023-01-25T22:42:22.003Z,13.10
2023-01-25T22:47:30.168Z,14.00
2023-01-25T22:52:38.038Z,11.60
2023-01-25T22:57:45.690Z,12.80
2023-01-25T23:02:53.327Z,14.20
2023-01-25T23:08:00.712Z,12.40
2023-01-25T23:13:08.376Z,14.00
2023-01-25T23:18:33.232Z,13.30
2023-01-25T23:23:41.079Z,13.40
2023-01-25T23:28:53.705Z,14.50
2023-01-25T23:34:05.096Z,13.50
2023-01-25T23:39:14.798Z,16.30
2023-01-25T23:44:22.902Z,15.50
2023-01-25T23:49:30.632Z,14.40
2023-01-25T23:54:38.649Z,14.40
2023-01-25T23:59:45.926Z,14.00
